sensor_id;sensor_type;location;lat;lon;timestamp;pressure;altitude;pressure_sealevel;temperature
49785;BMP280;35679;38.732;-121.358;2024-01-15T00:01:32;101553.66;;;15.67
49785;BMP280;35679;38.732;-121.358;2024-01-15T00:04:22;101553.03;;;15.65
49785;BMP280;35679;38.732;-121.358;2024-01-15T00:07:11;101557.69;;;15.63
49785;BMP280;35679;38.732;-121.358;2024-01-15T00:10:01;101556.22;;;15.61
49785;BMP280;35679;38.732;-121.358;2024-01-15T00:12:50;101551.25;;;15.58
49785;BMP280;35679;38.732;-121.358;2024-01-15T00:15:39;101554.91;;;15.57
49785;BMP280;35679;38.732;-121.358;2024-01-15T00:18:29;101563.25;;;15.54
49785;BMP280;35679;38.732;-121.358;2024-01-15T00:21:18;101565.91;;;15.54
49785;BMP280;35679;38.732;-121.358;2024-01-15T00:24:07;101564.41;;;15.51
49785;BMP280;35679;38.732;-121.358;2024-01-15T00:26:56;101569.94;;;15.50
49785;BMP280;35679;38.732;-121.358;2024-01-15T00:29:45;101567.63;;;15.47
49785;BMP280;35679;38.732;-121.358;2024-01-15T00:32:35;101565.31;;;15.44
49785;BMP280;35679;38.732;-121.358;2024-01-15T00:35:24;101561.84;;;15.43
49785;BMP280;35679;38.732;-121.358;2024-01-15T00:38:14;101562.19;;;15.40
49785;BMP280;35679;38.732;-121.358;2024-01-15T00:41:03;101557.72;;;15.41
49785;BMP280;35679;38.732;-121.358;2024-01-15T00:43:52;101564.03;;;15.40
49785;BMP280;35679;38.732;-121.358;2024-01-15T00:46:42;101564.22;;;15.38
49785;BMP280;35679;38.732;-121.358;2024-01-15T00:49:32;101566.03;;;15.38
49785;BMP280;35679;38.732;-121.358;2024-01-15T00:52:21;101560.88;;;15.36
49785;BMP280;35679;38.732;-121.358;2024-01-15T00:55:10;101564.53;;;15.35
49785;BMP280;35679;38.732;-121.358;2024-01-15T00:58:00;101558.59;;;15.33
49785;BMP280;35679;38.732;-121.358;2024-01-15T01:00:49;101562.25;;;15.32
49785;BMP280;35679;38.732;-121.358;2024-01-15T01:03:38;101559.78;;;15.31
49785;BMP280;35679;38.732;-121.358;2024-01-15T01:06:27;101558.94;;;15.30
49785;BMP280;35679;38.732;-121.358;2024-01-15T01:09:19;101559.13;;;15.29
49785;BMP280;35679;38.732;-121.358;2024-01-15T01:12:09;101555.66;;;15.28
49785;BMP280;35679;38.732;-121.358;2024-01-15T01:14:58;101564.44;;;15.29
49785;BMP280;35679;38.732;-121.358;2024-01-15T01:17:47;101557.81;;;15.25
49785;BMP280;35679;38.732;-121.358;2024-01-15T01:20:37;101570.13;;;15.26
49785;BMP280;35679;38.732;-121.358;2024-01-15T01:23:27;101562.47;;;15.23
49785;BMP280;35679;38.732;-121.358;2024-01-15T01:26:17;101565.13;;;15.23
49785;BMP280;35679;38.732;-121.358;2024-01-15T01:29:07;101570.44;;;15.23
49785;BMP280;35679;38.732;-121.358;2024-01-15T01:31:56;101575.94;;;15.21
49785;BMP280;35679;38.732;-121.358;2024-01-15T01:34:45;101576.09;;;15.20
49785;BMP280;35679;38.732;-121.358;2024-01-15T01:37:34;101575.44;;;15.18
49785;BMP280;35679;38.732;-121.358;2024-01-15T01:40:23;101573.16;;;15.15
49785;BMP280;35679;38.732;-121.358;2024-01-15T01:43:12;101567.84;;;15.15
49785;BMP280;35679;38.732;-121.358;2024-01-15T01:46:02;101586.63;;;15.13
49785;BMP280;35679;38.732;-121.358;2024-01-15T01:48:52;101581.44;;;15.12
49785;BMP280;35679;38.732;-121.358;2024-01-15T01:51:41;101577.97;;;15.11
49785;BMP280;35679;38.732;-121.358;2024-01-15T01:54:31;101579.16;;;15.09
49785;BMP280;35679;38.732;-121.358;2024-01-15T01:57:21;101578.50;;;15.07
49785;BMP280;35679;38.732;-121.358;2024-01-15T02:00:10;101583.66;;;15.08
49785;BMP280;35679;38.732;-121.358;2024-01-15T02:02:59;101588.31;;;15.07
49785;BMP280;35679;38.732;-121.358;2024-01-15T02:05:49;101591.78;;;15.07
49785;BMP280;35679;38.732;-121.358;2024-01-15T02:08:38;101592.16;;;15.04
49785;BMP280;35679;38.732;-121.358;2024-01-15T02:11:27;101596.66;;;15.04
49785;BMP280;35679;38.732;-121.358;2024-01-15T02:14:16;101601.28;;;15.02
49785;BMP280;35679;38.732;-121.358;2024-01-15T02:17:06;101600.44;;;15.01
49785;BMP280;35679;38.732;-121.358;2024-01-15T02:19:55;101604.94;;;15.01
49785;BMP280;35679;38.732;-121.358;2024-01-15T02:22:44;101614.75;;;15.00
49785;BMP280;35679;38.732;-121.358;2024-01-15T02:25:33;101616.56;;;15.00
49785;BMP280;35679;38.732;-121.358;2024-01-15T02:28:22;101621.06;;;14.99
49785;BMP280;35679;38.732;-121.358;2024-01-15T02:31:11;101618.59;;;14.98
49785;BMP280;35679;38.732;-121.358;2024-01-15T02:34:00;101621.41;;;14.96
49785;BMP280;35679;38.732;-121.358;2024-01-15T02:36:50;101625.91;;;14.96
49785;BMP280;35679;38.732;-121.358;2024-01-15T02:39:39;101625.25;;;14.94
49785;BMP280;35679;38.732;-121.358;2024-01-15T02:42:28;101634.06;;;14.94
49785;BMP280;35679;38.732;-121.358;2024-01-15T02:45:17;101633.38;;;14.92
49785;BMP280;35679;38.732;-121.358;2024-01-15T02:48:06;101636.91;;;14.93
49785;BMP280;35679;38.732;-121.358;2024-01-15T02:50:56;101637.03;;;14.91
49785;BMP280;35679;38.732;-121.358;2024-01-15T02:53:45;101642.53;;;14.90
49785;BMP280;35679;38.732;-121.358;2024-01-15T02:56:34;101643.53;;;14.89
49785;BMP280;35679;38.732;-121.358;2024-01-15T02:59:23;101645.38;;;14.88
49785;BMP280;35679;38.732;-121.358;2024-01-15T03:02:12;101656.00;;;14.88
49785;BMP280;35679;38.732;-121.358;2024-01-15T03:05:01;101656.00;;;14.88
49785;BMP280;35679;38.732;-121.358;2024-01-15T03:07:50;101655.34;;;14.86
49785;BMP280;35679;38.732;-121.358;2024-01-15T03:10:39;101656.00;;;14.88
49785;BMP280;35679;38.732;-121.358;2024-01-15T03:13:28;101640.72;;;14.90
49785;BMP280;35679;38.732;-121.358;2024-01-15T03:16:18;101656.66;;;14.90
49785;BMP280;35679;38.732;-121.358;2024-01-15T03:19:08;101654.00;;;14.90
49785;BMP280;35679;38.732;-121.358;2024-01-15T03:21:58;101655.81;;;14.90
49785;BMP280;35679;38.732;-121.358;2024-01-15T03:24:49;101655.00;;;14.89
49785;BMP280;35679;38.732;-121.358;2024-01-15T03:27:38;101656.00;;;14.88
49785;BMP280;35679;38.732;-121.358;2024-01-15T03:30:27;101654.34;;;14.87
49785;BMP280;35679;38.732;-121.358;2024-01-15T03:33:17;101660.66;;;14.86
49785;BMP280;35679;38.732;-121.358;2024-01-15T03:36:06;101652.69;;;14.86
49785;BMP280;35679;38.732;-121.358;2024-01-15T03:38:56;101651.19;;;14.84
49785;BMP280;35679;38.732;-121.358;2024-01-15T03:41:45;101644.25;;;14.83
49785;BMP280;35679;38.732;-121.358;2024-01-15T03:44:34;101647.72;;;14.83
49785;BMP280;35679;38.732;-121.358;2024-01-15T03:47:24;101641.72;;;14.81
49785;BMP280;35679;38.732;-121.358;2024-01-15T03:50:15;101653.38;;;14.80
49785;BMP280;35679;38.732;-121.358;2024-01-15T03:53:05;101655.38;;;14.78
49785;BMP280;35679;38.732;-121.358;2024-01-15T03:55:54;101662.34;;;14.79
49785;BMP280;35679;38.732;-121.358;2024-01-15T03:58:43;101664.03;;;14.80
49785;BMP280;35679;38.732;-121.358;2024-01-15T04:01:33;101660.69;;;14.78
49785;BMP280;35679;38.732;-121.358;2024-01-15T04:04:22;101664.34;;;14.77
49785;BMP280;35679;38.732;-121.358;2024-01-15T04:07:11;101669.66;;;14.77
49785;BMP280;35679;38.732;-121.358;2024-01-15T04:10:01;101671.66;;;14.75
49785;BMP280;35679;38.732;-121.358;2024-01-15T04:12:50;101671.00;;;14.73
49785;BMP280;35679;38.732;-121.358;2024-01-15T04:15:39;101678.97;;;14.73
49785;BMP280;35679;38.732;-121.358;2024-01-15T04:18:29;101672.81;;;14.73
49785;BMP280;35679;38.732;-121.358;2024-01-15T04:21:18;101674.66;;;14.72
49785;BMP280;35679;38.732;-121.358;2024-01-15T04:24:07;101664.22;;;14.71
49785;BMP280;35679;38.732;-121.358;2024-01-15T04:26:57;101664.38;;;14.69
49785;BMP280;35679;38.732;-121.358;2024-01-15T04:29:46;101659.06;;;14.69
49785;BMP280;35679;38.732;-121.358;2024-01-15T04:32:36;101660.88;;;14.69
49785;BMP280;35679;38.732;-121.358;2024-01-15T04:35:25;101654.75;;;14.68
49785;BMP280;35679;38.732;-121.358;2024-01-15T04:38:14;101664.72;;;14.66
49785;BMP280;35679;38.732;-121.358;2024-01-15T04:41:04;101662.91;;;14.67
49785;BMP280;35679;38.732;-121.358;2024-01-15T04:43:53;101660.38;;;14.65
49785;BMP280;35679;38.732;-121.358;2024-01-15T04:46:42;101655.06;;;14.65
49785;BMP280;35679;38.732;-121.358;2024-01-15T04:49:32;101666.72;;;14.64
49785;BMP280;35679;38.732;-121.358;2024-01-15T04:52:22;101665.25;;;14.62
49785;BMP280;35679;38.732;-121.358;2024-01-15T04:55:12;101672.19;;;14.63
49785;BMP280;35679;38.732;-121.358;2024-01-15T04:58:01;101664.38;;;14.61
49785;BMP280;35679;38.732;-121.358;2024-01-15T05:00:50;101676.00;;;14.60
49785;BMP280;35679;38.732;-121.358;2024-01-15T05:03:40;101679.69;;;14.59
49785;BMP280;35679;38.732;-121.358;2024-01-15T05:06:29;101675.19;;;14.60
49785;BMP280;35679;38.732;-121.358;2024-01-15T05:09:19;101680.69;;;14.58
49785;BMP280;35679;38.732;-121.358;2024-01-15T05:12:08;101678.03;;;14.58
49785;BMP280;35679;38.732;-121.358;2024-01-15T05:14:57;101684.31;;;14.57
49785;BMP280;35679;38.732;-121.358;2024-01-15T05:17:47;101684.31;;;14.57
49785;BMP280;35679;38.732;-121.358;2024-01-15T05:20:36;101701.06;;;14.58
49785;BMP280;35679;38.732;-121.358;2024-01-15T05:23:25;101694.13;;;14.57
49785;BMP280;35679;38.732;-121.358;2024-01-15T05:26:15;101697.59;;;14.57
49785;BMP280;35679;38.732;-121.358;2024-01-15T05:29:04;101692.28;;;14.57
49785;BMP280;35679;38.732;-121.358;2024-01-15T05:31:53;101687.78;;;14.58
49785;BMP280;35679;38.732;-121.358;2024-01-15T05:34:45;101698.59;;;14.56
49785;BMP280;35679;38.732;-121.358;2024-01-15T05:37:35;101686.31;;;14.55
49785;BMP280;35679;38.732;-121.358;2024-01-15T05:40:24;101683.66;;;14.55
49785;BMP280;35679;38.732;-121.358;2024-01-15T05:43:14;101702.25;;;14.55
49785;BMP280;35679;38.732;-121.358;2024-01-15T05:46:03;101700.56;;;14.54
49785;BMP280;35679;38.732;-121.358;2024-01-15T05:48:52;101692.47;;;14.56
49785;BMP280;35679;38.732;-121.358;2024-01-15T05:51:41;101683.66;;;14.55
49785;BMP280;35679;38.732;-121.358;2024-01-15T05:54:31;101673.22;;;14.54
49785;BMP280;35679;38.732;-121.358;2024-01-15T05:57:20;101674.03;;;14.54
49785;BMP280;35679;38.732;-121.358;2024-01-15T06:00:10;101672.38;;;14.53
49785;BMP280;35679;38.732;-121.358;2024-01-15T06:02:59;101674.38;;;14.51
49785;BMP280;35679;38.732;-121.358;2024-01-15T06:05:49;101677.84;;;14.52
49785;BMP280;35679;38.732;-121.358;2024-01-15T06:08:38;101680.50;;;14.52
49785;BMP280;35679;38.732;-121.358;2024-01-15T06:11:31;101692.97;;;14.51
49785;BMP280;35679;38.732;-121.358;2024-01-15T06:14:21;101688.66;;;14.50
49785;BMP280;35679;38.732;-121.358;2024-01-15T06:17:10;101694.81;;;14.51
49785;BMP280;35679;38.732;-121.358;2024-01-15T06:19:59;101703.75;;;14.50
49785;BMP280;35679;38.732;-121.358;2024-01-15T06:22:49;101706.41;;;14.50
49785;BMP280;35679;38.732;-121.358;2024-01-15T06:25:38;101699.25;;;14.50
49785;BMP280;35679;38.732;-121.358;2024-01-15T06:28:27;101697.59;;;14.49
49785;BMP280;35679;38.732;-121.358;2024-01-15T06:31:16;101695.97;;;14.48
49785;BMP280;35679;38.732;-121.358;2024-01-15T06:34:06;101696.78;;;14.49
49785;BMP280;35679;38.732;-121.358;2024-01-15T06:36:55;101695.97;;;14.48
49785;BMP280;35679;38.732;-121.358;2024-01-15T06:39:45;101704.06;;;14.47
49785;BMP280;35679;38.732;-121.358;2024-01-15T06:42:35;101701.28;;;14.48
49785;BMP280;35679;38.732;-121.358;2024-01-15T06:45:24;101709.38;;;14.47
49785;BMP280;35679;38.732;-121.358;2024-01-15T06:48:14;101706.72;;;14.47
49785;BMP280;35679;38.732;-121.358;2024-01-15T06:51:05;101718.22;;;14.47
49785;BMP280;35679;38.732;-121.358;2024-01-15T06:53:54;101710.25;;;14.47
49785;BMP280;35679;38.732;-121.358;2024-01-15T06:56:43;101716.53;;;14.46
49785;BMP280;35679;38.732;-121.358;2024-01-15T06:59:33;101716.53;;;14.46
49785;BMP280;35679;38.732;-121.358;2024-01-15T07:02:22;101714.88;;;14.45
49785;BMP280;35679;38.732;-121.358;2024-01-15T07:05:11;101719.19;;;14.46
49785;BMP280;35679;38.732;-121.358;2024-01-15T07:08:01;101715.88;;;14.44
49785;BMP280;35679;38.732;-121.358;2024-01-15T07:10:50;101718.53;;;14.44
49785;BMP280;35679;38.732;-121.358;2024-01-15T07:13:39;101719.53;;;14.43
49785;BMP280;35679;38.732;-121.358;2024-01-15T07:16:29;101714.06;;;14.45
49785;BMP280;35679;38.732;-121.358;2024-01-15T07:19:23;101716.88;;;14.43
49785;BMP280;35679;38.732;-121.358;2024-01-15T07:22:14;101703.94;;;14.41
49785;BMP280;35679;38.732;-121.358;2024-01-15T07:25:05;101704.78;;;14.41
49785;BMP280;35679;38.732;-121.358;2024-01-15T07:27:55;101706.59;;;14.41
49785;BMP280;35679;38.732;-121.358;2024-01-15T07:30:45;101712.75;;;14.41
49785;BMP280;35679;38.732;-121.358;2024-01-15T07:33:34;101701.28;;;14.41
49785;BMP280;35679;38.732;-121.358;2024-01-15T07:36:23;101696.97;;;14.40
49785;BMP280;35679;38.732;-121.358;2024-01-15T07:39:13;101700.63;;;14.39
49785;BMP280;35679;38.732;-121.358;2024-01-15T07:42:02;101705.09;;;14.38
49785;BMP280;35679;38.732;-121.358;2024-01-15T07:44:51;101704.28;;;14.38
49785;BMP280;35679;38.732;-121.358;2024-01-15T07:47:40;101703.44;;;14.37
49785;BMP280;35679;38.732;-121.358;2024-01-15T07:50:30;101694.66;;;14.37
49785;BMP280;35679;38.732;-121.358;2024-01-15T07:53:19;101690.34;;;14.36
49785;BMP280;35679;38.732;-121.358;2024-01-15T07:56:09;101700.94;;;14.36
49785;BMP280;35679;38.732;-121.358;2024-01-15T07:58:58;101703.44;;;14.37
49785;BMP280;35679;38.732;-121.358;2024-01-15T08:01:48;101708.75;;;14.37
49785;BMP280;35679;38.732;-121.358;2024-01-15T08:04:37;101707.09;;;14.36
49785;BMP280;35679;38.732;-121.358;2024-01-15T08:07:27;101699.16;;;14.36
49785;BMP280;35679;38.732;-121.358;2024-01-15T08:10:16;101701.13;;;14.34
49785;BMP280;35679;38.732;-121.358;2024-01-15T08:13:05;101690.34;;;14.36
49785;BMP280;35679;38.732;-121.358;2024-01-15T08:15:56;101696.81;;;14.33
49785;BMP280;35679;38.732;-121.358;2024-01-15T08:18:45;101701.31;;;14.33
49785;BMP280;35679;38.732;-121.358;2024-01-15T08:21:34;101710.25;;;14.32
49785;BMP280;35679;38.732;-121.358;2024-01-15T08:24:24;101704.94;;;14.32
49785;BMP280;35679;38.732;-121.358;2024-01-15T08:27:13;101706.59;;;14.33
49785;BMP280;35679;38.732;-121.358;2024-01-15T08:30:03;101706.59;;;14.33
49785;BMP280;35679;38.732;-121.358;2024-01-15T08:32:56;101709.25;;;14.33
49785;BMP280;35679;38.732;-121.358;2024-01-15T08:35:50;101711.91;;;14.33
49785;BMP280;35679;38.732;-121.358;2024-01-15T08:38:40;101707.78;;;14.30
49785;BMP280;35679;38.732;-121.358;2024-01-15T08:41:30;101712.06;;;14.31
49785;BMP280;35679;38.732;-121.358;2024-01-15T08:44:19;101715.56;;;14.32
49785;BMP280;35679;38.732;-121.358;2024-01-15T08:47:08;101708.59;;;14.31
49785;BMP280;35679;38.732;-121.358;2024-01-15T08:49:57;101716.56;;;14.31
49785;BMP280;35679;38.732;-121.358;2024-01-15T08:52:47;101719.22;;;14.31
49785;BMP280;35679;38.732;-121.358;2024-01-15T08:55:36;101723.69;;;14.30
49785;BMP280;35679;38.732;-121.358;2024-01-15T08:58:26;101727.34;;;14.29
49785;BMP280;35679;38.732;-121.358;2024-01-15T09:01:15;101731.81;;;14.29
49785;BMP280;35679;38.732;-121.358;2024-01-15T09:04:05;101731.00;;;14.28
49785;BMP280;35679;38.732;-121.358;2024-01-15T09:06:54;101724.88;;;14.28
49785;BMP280;35679;38.732;-121.358;2024-01-15T09:09:43;101721.34;;;14.27
49785;BMP280;35679;38.732;-121.358;2024-01-15T09:12:32;101722.34;;;14.26
49785;BMP280;35679;38.732;-121.358;2024-01-15T09:15:22;101726.69;;;14.27
49785;BMP280;35679;38.732;-121.358;2024-01-15T09:18:12;101722.22;;;14.28
49785;BMP280;35679;38.732;-121.358;2024-01-15T09:21:03;101725.84;;;14.27
49785;BMP280;35679;38.732;-121.358;2024-01-15T09:23:52;101728.50;;;14.27
49785;BMP280;35679;38.732;-121.358;2024-01-15T09:26:41;101732.97;;;14.26
49785;BMP280;35679;38.732;-121.358;2024-01-15T09:29:30;101734.63;;;14.27
49785;BMP280;35679;38.732;-121.358;2024-01-15T09:32:20;101728.69;;;14.25
49785;BMP280;35679;38.732;-121.358;2024-01-15T09:35:09;101744.44;;;14.27
49785;BMP280;35679;38.732;-121.358;2024-01-15T09:37:59;101741.97;;;14.25
49785;BMP280;35679;38.732;-121.358;2024-01-15T09:40:49;101741.09;;;14.25
49785;BMP280;35679;38.732;-121.358;2024-01-15T09:43:38;101732.16;;;14.26
49785;BMP280;35679;38.732;-121.358;2024-01-15T09:46:27;101732.97;;;14.26
49785;BMP280;35679;38.732;-121.358;2024-01-15T09:49:16;101741.97;;;14.25
49785;BMP280;35679;38.732;-121.358;2024-01-15T09:52:06;101734.13;;;14.24
49785;BMP280;35679;38.732;-121.358;2024-01-15T09:55:01;101738.44;;;14.25
49785;BMP280;35679;38.732;-121.358;2024-01-15T09:57:51;101747.25;;;14.25
49785;BMP280;35679;38.732;-121.358;2024-01-15T10:00:42;101754.56;;;14.23
49785;BMP280;35679;38.732;-121.358;2024-01-15T10:03:32;101743.13;;;14.23
49785;BMP280;35679;38.732;-121.358;2024-01-15T10:06:22;101734.13;;;14.24
49785;BMP280;35679;38.732;-121.358;2024-01-15T10:09:14;101728.00;;;14.23
49785;BMP280;35679;38.732;-121.358;2024-01-15T10:12:04;101724.53;;;14.23
49785;BMP280;35679;38.732;-121.358;2024-01-15T10:14:53;101727.19;;;14.23
49785;BMP280;35679;38.732;-121.358;2024-01-15T10:17:42;101725.19;;;14.25
49785;BMP280;35679;38.732;-121.358;2024-01-15T10:20:34;101728.81;;;14.24
49785;BMP280;35679;38.732;-121.358;2024-01-15T10:23:24;101738.63;;;14.23
49785;BMP280;35679;38.732;-121.358;2024-01-15T10:26:13;101746.41;;;14.25
49785;BMP280;35679;38.732;-121.358;2024-01-15T10:29:05;101748.44;;;14.23
49785;BMP280;35679;38.732;-121.358;2024-01-15T10:31:54;101749.25;;;14.23
49785;BMP280;35679;38.732;-121.358;2024-01-15T10:34:43;101757.22;;;14.23
49785;BMP280;35679;38.732;-121.358;2024-01-15T10:37:33;101753.72;;;14.23
49785;BMP280;35679;38.732;-121.358;2024-01-15T10:40:23;101745.09;;;14.21
49785;BMP280;35679;38.732;-121.358;2024-01-15T10:43:12;101746.94;;;14.20
49785;BMP280;35679;38.732;-121.358;2024-01-15T10:46:01;101739.97;;;14.19
49785;BMP280;35679;38.732;-121.358;2024-01-15T10:48:51;101745.09;;;14.21
49785;BMP280;35679;38.732;-121.358;2024-01-15T10:51:41;101734.47;;;14.21
49785;BMP280;35679;38.732;-121.358;2024-01-15T10:54:30;101736.16;;;14.22
49785;BMP280;35679;38.732;-121.358;2024-01-15T10:57:21;101726.69;;;14.19
49785;BMP280;35679;38.732;-121.358;2024-01-15T11:00:11;101729.34;;;14.19
49785;BMP280;35679;38.732;-121.358;2024-01-15T11:03:03;101716.88;;;14.20
49785;BMP280;35679;38.732;-121.358;2024-01-15T11:05:54;101722.19;;;14.20
49785;BMP280;35679;38.732;-121.358;2024-01-15T11:08:43;101729.16;;;14.21
49785;BMP280;35679;38.732;-121.358;2024-01-15T11:11:34;101723.19;;;14.19
49785;BMP280;35679;38.732;-121.358;2024-01-15T11:14:33;101719.72;;;14.18
49785;BMP280;35679;38.732;-121.358;2024-01-15T11:17:22;101717.06;;;14.18
49785;BMP280;35679;38.732;-121.358;2024-01-15T11:20:12;101719.53;;;14.20
49785;BMP280;35679;38.732;-121.358;2024-01-15T11:23:01;101717.88;;;14.19
49785;BMP280;35679;38.732;-121.358;2024-01-15T11:25:50;101715.22;;;14.19
49785;BMP280;35679;38.732;-121.358;2024-01-15T11:28:47;101705.63;;;14.18
49785;BMP280;35679;38.732;-121.358;2024-01-15T11:40:45;101700.47;;;14.16
49785;BMP280;35679;38.732;-121.358;2024-01-15T11:43:36;101688.22;;;14.15
49785;BMP280;35679;38.732;-121.358;2024-01-15T11:46:25;101697.97;;;14.15
49785;BMP280;35679;38.732;-121.358;2024-01-15T11:49:20;101701.47;;;14.15
49785;BMP280;35679;38.732;-121.358;2024-01-15T11:52:16;101699.63;;;14.16
49785;BMP280;35679;38.732;-121.358;2024-01-15T11:58:02;101697.97;;;14.15
49785;BMP280;35679;38.732;-121.358;2024-01-15T12:00:56;101703.28;;;14.15
49785;BMP280;35679;38.732;-121.358;2024-01-15T12:03:47;101699.81;;;14.14
49785;BMP280;35679;38.732;-121.358;2024-01-15T12:06:36;101704.13;;;14.15
49785;BMP280;35679;38.732;-121.358;2024-01-15T12:09:25;101695.50;;;14.13
49785;BMP280;35679;38.732;-121.358;2024-01-15T12:15:24;101706.94;;;14.14
49785;BMP280;35679;38.732;-121.358;2024-01-15T12:18:14;101700.00;;;14.13
49785;BMP280;35679;38.732;-121.358;2024-01-15T12:21:03;101701.78;;;14.12
49785;BMP280;35679;38.732;-121.358;2024-01-15T12:23:52;101705.28;;;14.13
49785;BMP280;35679;38.732;-121.358;2024-01-15T12:26:43;101708.94;;;14.12
49785;BMP280;35679;38.732;-121.358;2024-01-15T12:29:32;101708.94;;;14.12
49785;BMP280;35679;38.732;-121.358;2024-01-15T12:32:23;101704.44;;;14.12
49785;BMP280;35679;38.732;-121.358;2024-01-15T12:35:13;101709.75;;;14.12
49785;BMP280;35679;38.732;-121.358;2024-01-15T12:38:02;101712.41;;;14.12
49785;BMP280;35679;38.732;-121.358;2024-01-15T12:40:51;101723.19;;;14.11
49785;BMP280;35679;38.732;-121.358;2024-01-15T12:43:41;101725.84;;;14.11
49785;BMP280;35679;38.732;-121.358;2024-01-15T12:46:30;101721.53;;;14.10
49785;BMP280;35679;38.732;-121.358;2024-01-15T12:49:19;101724.00;;;14.11
49785;BMP280;35679;38.732;-121.358;2024-01-15T12:52:09;101712.59;;;14.11
49785;BMP280;35679;38.732;-121.358;2024-01-15T12:54:58;101709.94;;;14.11
49785;BMP280;35679;38.732;-121.358;2024-01-15T12:57:47;101701.16;;;14.10
49785;BMP280;35679;38.732;-121.358;2024-01-15T13:00:38;101707.28;;;14.11
49785;BMP280;35679;38.732;-121.358;2024-01-15T13:03:27;101703.09;;;14.08
49785;BMP280;35679;38.732;-121.358;2024-01-15T13:06:16;101709.25;;;14.09
49785;BMP280;35679;38.732;-121.358;2024-01-15T13:09:06;101711.75;;;14.10
49785;BMP280;35679;38.732;-121.358;2024-01-15T13:11:55;101709.25;;;14.09
49785;BMP280;35679;38.732;-121.358;2024-01-15T13:14:44;101702.25;;;14.08
49785;BMP280;35679;38.732;-121.358;2024-01-15T13:17:33;101702.13;;;14.09
49785;BMP280;35679;38.732;-121.358;2024-01-15T13:20:22;101713.56;;;14.10
49785;BMP280;35679;38.732;-121.358;2024-01-15T13:23:11;101718.16;;;14.08
49785;BMP280;35679;38.732;-121.358;2024-01-15T13:26:00;101731.34;;;14.09
49785;BMP280;35679;38.732;-121.358;2024-01-15T13:28:50;101720.88;;;14.16
49785;BMP280;35679;38.732;-121.358;2024-01-15T13:31:39;101715.56;;;14.16
49785;BMP280;35679;38.732;-121.358;2024-01-15T13:34:28;101724.34;;;14.16
49785;BMP280;35679;38.732;-121.358;2024-01-15T13:37:17;101725.03;;;14.18
49785;BMP280;35679;38.732;-121.358;2024-01-15T13:40:07;101723.19;;;14.19
49785;BMP280;35679;38.732;-121.358;2024-01-15T13:42:58;101723.69;;;14.22
49785;BMP280;35679;38.732;-121.358;2024-01-15T13:45:47;101729.66;;;14.24
49785;BMP280;35679;38.732;-121.358;2024-01-15T13:48:36;101733.16;;;14.25
49785;BMP280;35679;38.732;-121.358;2024-01-15T13:51:25;101723.38;;;14.25
49785;BMP280;35679;38.732;-121.358;2024-01-15T13:54:14;101731.00;;;14.28
49785;BMP280;35679;38.732;-121.358;2024-01-15T13:57:04;101731.00;;;14.28
49785;BMP280;35679;38.732;-121.358;2024-01-15T13:59:54;101732.97;;;14.26
49785;BMP280;35679;38.732;-121.358;2024-01-15T14:02:45;101730.00;;;14.29
49785;BMP280;35679;38.732;-121.358;2024-01-15T14:05:34;101735.13;;;14.31
49785;BMP280;35679;38.732;-121.358;2024-01-15T14:08:23;101736.81;;;14.32
49785;BMP280;35679;38.732;-121.358;2024-01-15T14:11:13;101737.97;;;14.29
49785;BMP280;35679;38.732;-121.358;2024-01-15T14:14:03;101727.53;;;14.28
49785;BMP280;35679;38.732;-121.358;2024-01-15T14:16:52;101730.19;;;14.28
49785;BMP280;35679;38.732;-121.358;2024-01-15T14:19:41;101735.78;;;14.25
49785;BMP280;35679;38.732;-121.358;2024-01-15T14:22:31;101734.97;;;14.24
49785;BMP280;35679;38.732;-121.358;2024-01-15T14:25:20;101731.34;;;14.25
49785;BMP280;35679;38.732;-121.358;2024-01-15T14:28:09;101721.88;;;14.23
49785;BMP280;35679;38.732;-121.358;2024-01-15T14:30:59;101727.19;;;14.23
49785;BMP280;35679;38.732;-121.358;2024-01-15T14:33:49;101728.81;;;14.24
49785;BMP280;35679;38.732;-121.358;2024-01-15T14:36:38;101732.50;;;14.23
49785;BMP280;35679;38.732;-121.358;2024-01-15T14:39:27;101735.16;;;14.23
49785;BMP280;35679;38.732;-121.358;2024-01-15T14:42:17;101733.50;;;14.22
49785;BMP280;35679;38.732;-121.358;2024-01-15T14:45:06;101737.81;;;14.23
49785;BMP280;35679;38.732;-121.358;2024-01-15T14:48:00;101736.16;;;14.22
49785;BMP280;35679;38.732;-121.358;2024-01-15T14:50:49;101743.13;;;14.23
49785;BMP280;35679;38.732;-121.358;2024-01-15T14:53:39;101740.47;;;14.23
49785;BMP280;35679;38.732;-121.358;2024-01-15T14:56:28;101736.16;;;14.22
49785;BMP280;35679;38.732;-121.358;2024-01-15T14:59:17;101730.16;;;14.20
49785;BMP280;35679;38.732;-121.358;2024-01-15T15:02:06;101729.34;;;14.19
49785;BMP280;35679;38.732;-121.358;2024-01-15T15:04:58;101729.34;;;14.19
49785;BMP280;35679;38.732;-121.358;2024-01-15T15:07:48;101728.34;;;14.20
49785;BMP280;35679;38.732;-121.358;2024-01-15T15:10:37;101725.84;;;14.19
49785;BMP280;35679;38.732;-121.358;2024-01-15T15:13:28;101733.50;;;14.22
49785;BMP280;35679;38.732;-121.358;2024-01-15T15:16:24;101736.47;;;14.19
49785;BMP280;35679;38.732;-121.358;2024-01-15T15:19:13;101734.66;;;14.19
49785;BMP280;35679;38.732;-121.358;2024-01-15T15:22:04;101741.75;;;14.19
49785;BMP280;35679;38.732;-121.358;2024-01-15T15:24:53;101738.13;;;14.20
49785;BMP280;35679;38.732;-121.358;2024-01-15T15:27:43;101738.13;;;14.20
49785;BMP280;35679;38.732;-121.358;2024-01-15T15:30:32;101739.78;;;14.21
49785;BMP280;35679;38.732;-121.358;2024-01-15T15:33:22;101745.28;;;14.19
49785;BMP280;35679;38.732;-121.358;2024-01-15T15:36:11;101744.41;;;14.19
49785;BMP280;35679;38.732;-121.358;2024-01-15T15:39:01;101739.09;;;14.19